Oranjewijk, Netherlands
Current Conditions -  °F | °C
As of 10:25 AM on Monday 20 Oct 2014 (Local Time) from EHRD Reporting Station
Light Rain Light Rain  
Wind Chill: 59°   Ceiling: 3700
Heat Index: 59°   Visibility: 6mi
Dew Point: 54°   Wind: 14mph
Humidity: 82%   Direction: 260°W
Pressure: 30"   Gusts: NA
Location:  52.05°N, 4.65°E
Report Text: EHRD 200825Z AUTO 26012KT 220V300 9999 -RA FEW018 SCT032 BKN03715/12 Q1016 RERA TEMPO 7000 -RADZ
Loading
Personal Weather Stations






























Interactive Weather Map
Tropical Storm Tracking
New forecast layout! Learn more

10-Day Weather Forecast

Advertisements
Track Severe Weather on mobile